Irving, Illinois
Current Conditions -  °F | °C
As of 7:15 AM on Monday 22 Dec 2014 (Local Time) from K3LF Reporting Station
Light Rain Light Rain  
Wind Chill: 28°   Ceiling: 1900
Heat Index: 36°   Visibility: 4mi
Dew Point: 33°   Wind: 12mph
Humidity: 91%   Direction: 120°ESE
Pressure: 29.8"   Gusts: NA
Location:  39.21°N, 89.4°W
Report Text: K3LF 221315Z AUTO 12010KT 4SM -RA SCT013 BKN019 OVC050 02/01 A2980 RMK AO2 P0003 T00220008
Loading
Personal Weather Stations






























Interactive Weather Map New forecast layout! Learn more

10-Day Weather Forecast

Advertisements
Track Severe Weather on mobile